Triumph, Nebraska
Current Conditions -  °F | °C
As of 9:53 PM on Thursday 27 Nov 2014 (Local Time) from KBBW Reporting Station
Clear Clear  
Wind Chill: 26°   Ceiling: Unl
Heat Index: 26°   Visibility: 10mi
Dew Point: 17°   Wind: 3mph
Humidity: 69%   Direction: 150°SSE
Pressure: 29.98"   Gusts: NA
Location:  41.1872°N, 100.067°W
Report Text: KBBW 280353Z AUTO 15003KT 10SM CLR M03/M08 A2998 RMK AO2 SLP183 T10331083
Loading
Personal Weather Stations






























Interactive Weather Map New forecast layout! Learn more

10-Day Weather Forecast

Advertisements
Track Severe Weather on mobile